Time;durP1;ratioP1;P1;durP2;ratioP2;P2;SDS_P1;SDS_P2;PMS_P1;PMS_P2;Temp;Humidity;BMP_temperature;BMP_pressure;BME280_temperature;BME280_humidity;BME280_pressure;Samples;Min_cycle;Max_cycle;Signal;HPM_P1;HPM_P2
2020/12/15 00:01:06;;;;;;;45.10;23.15;;;102.70;2227.20;;;;;;5078471;28;20123;-70
2020/12/15 00:03:33;;;;;;;27.33;15.57;;;102.70;2227.20;;;;;;5078764;28;20125;-70
2020/12/15 00:05:59;;;;;;;35.40;17.92;;;102.70;2227.20;;;;;;5078894;28;20024;-71
2020/12/15 00:08:24;;;;;;;37.67;20.40;;;102.70;2227.20;;;;;;5078899;28;20025;-70
2020/12/15 00:10:50;;;;;;;36.00;18.90;;;102.80;2227.20;;;;;;5078580;28;20020;-70
2020/12/15 00:13:16;;;;;;;33.83;16.15;;;102.90;2227.20;;;;;;5078660;28;20029;-71
2020/12/15 00:15:42;;;;;;;33.33;16.38;;;102.90;2227.20;;;;;;5078908;28;20029;-69
2020/12/15 00:18:09;;;;;;;43.40;20.52;;;102.80;2227.20;;;;;;5079392;28;20493;-69
2020/12/15 00:20:34;;;;;;;33.15;16.83;;;102.90;2227.20;;;;;;5074960;28;20107;-71
2020/12/15 00:23:01;;;;;;;34.42;17.55;;;102.90;2227.20;;;;;;5065687;28;20040;-71
2020/12/15 00:25:27;;;;;;;37.70;17.83;;;103.00;2227.20;;;;;;5078810;28;20343;-71
2020/12/15 00:27:53;;;;;;;32.38;16.20;;;103.00;2227.20;;;;;;5079808;28;20039;-71
2020/12/15 00:30:19;;;;;;;31.92;16.92;;;103.00;2227.20;;;;;;5079993;28;20048;-70
2020/12/15 00:32:48;;;;;;;47.05;20.40;;;102.90;2227.20;;;;;;5079270;28;20032;-70
2020/12/15 00:35:14;;;;;;;;;;;102.90;2227.20;;;;;;5080046;28;20060;-71
2020/12/15 00:37:40;;;;;;;43.75;19.88;;;103.00;2227.20;;;;;;5078587;28;20320;-70
2020/12/15 00:40:06;;;;;;;39.80;19.70;;;103.00;2227.20;;;;;;5079015;28;20029;-70
2020/12/15 00:42:31;;;;;;;38.22;19.85;;;103.00;2227.20;;;;;;5079502;28;20035;-71
2020/12/15 00:44:58;;;;;;;35.33;18.02;;;103.00;2227.20;;;;;;5079759;28;20051;-70
2020/12/15 00:47:24;;;;;;;35.88;18.05;;;102.90;2227.20;;;;;;5078873;28;20024;-71
2020/12/15 00:49:49;;;;;;;37.53;20.13;;;102.80;2227.20;;;;;;5079383;28;20300;-71
2020/12/15 00:52:15;;;;;;;38.53;18.38;;;102.60;2227.20;;;;;;5078643;28;20032;-70
2020/12/15 00:54:41;;;;;;;38.53;19.23;;;102.50;2227.20;;;;;;5078734;28;20066;-71
2020/12/15 00:57:07;;;;;;;43.35;21.30;;;102.50;2227.20;;;;;;5079231;28;20056;-71
2020/12/15 00:59:33;;;;;;;44.38;20.38;;;102.50;2227.20;;;;;;5078936;28;20029;-71
2020/12/15 01:02:00;;;;;;;42.50;21.75;;;102.50;2227.20;;;;;;5079288;28;20127;-72
2020/12/15 01:04:26;;;;;;;43.50;21.10;;;102.40;2227.20;;;;;;5079198;28;20035;-71
2020/12/15 01:06:51;;;;;;;46.80;21.13;;;102.40;2227.20;;;;;;5078698;28;20067;-70
2020/12/15 01:09:18;;;;;;;48.00;21.52;;;102.40;2227.20;;;;;;5078746;28;20059;-71
2020/12/15 01:11:43;;;;;;;41.90;21.73;;;102.50;2227.20;;;;;;5079125;28;20034;-71
2020/12/15 01:14:09;;;;;;;47.08;22.08;;;102.50;2227.20;;;;;;5078391;28;20032;-71
2020/12/15 01:16:35;;;;;;;41.25;19.88;;;102.60;2227.20;;;;;;5078911;28;20370;-71
2020/12/15 01:19:01;;;;;;;47.05;21.23;;;102.60;2227.20;;;;;;5079071;28;20108;-72
2020/12/15 01:21:30;;;;;;;47.70;21.08;;;102.60;2227.20;;;;;;5078498;28;20020;-72
2020/12/15 01:23:56;;;;;;;41.67;19.83;;;102.60;2227.20;;;;;;5078961;28;20028;-71
2020/12/15 01:26:23;;;;;;;47.17;19.42;;;102.60;2227.20;;;;;;5078399;28;20024;-70
2020/12/15 01:28:49;;;;;;;44.38;19.58;;;102.60;2227.20;;;;;;5078003;28;20035;-70
2020/12/15 01:31:22;;;;;;;42.40;19.13;;;102.50;2227.20;;;;;;5078778;28;20395;-72
2020/12/15 01:33:48;;;;;;;39.47;19.90;;;102.60;2227.20;;;;;;5078290;28;20024;-70
2020/12/15 01:36:13;;;;;;;43.30;20.08;;;102.60;2227.20;;;;;;5078044;28;20028;-71
2020/12/15 01:38:41;;;;;;;44.58;21.00;;;102.70;2227.20;;;;;;5078407;28;20057;-70
2020/12/15 01:41:07;;;;;;;43.25;20.10;;;102.70;2227.20;;;;;;5078384;28;20021;-70
2020/12/15 01:43:34;;;;;;;40.92;19.70;;;102.80;2227.20;;;;;;5078055;28;20020;-72
2020/12/15 01:46:00;;;;;;;40.10;19.02;;;102.80;2227.20;;;;;;5078218;28;20024;-71
2020/12/15 01:48:26;;;;;;;39.95;19.10;;;102.70;2227.20;;;;;;5077395;28;20024;-71
2020/12/15 01:50:52;;;;;;;40.22;19.15;;;102.70;2227.20;;;;;;5078119;28;20024;-73
2020/12/15 01:53:18;;;;;;;39.35;17.80;;;102.80;2227.20;;;;;;5077781;28;20077;-71
2020/12/15 01:55:45;;;;;;;37.40;17.98;;;102.80;2227.20;;;;;;5077743;28;20414;-71
2020/12/15 01:58:11;;;;;;;46.03;22.65;;;103.00;2227.20;;;;;;5077685;28;20024;-70
2020/12/15 02:00:37;;;;;;;36.10;18.63;;;103.10;2227.20;;;;;;5077368;28;20028;-72
2020/12/15 02:03:03;;;;;;;37.45;18.38;;;103.20;2227.20;;;;;;5077304;28;20465;-70
2020/12/15 02:05:30;;;;;;;37.90;18.35;;;103.30;2227.20;;;;;;5077893;28;20028;-71
2020/12/15 02:07:55;;;;;;;41.30;18.23;;;103.10;2227.20;;;;;;5077864;28;20056;-71
2020/12/15 02:10:22;;;;;;;43.63;21.63;;;103.20;2227.20;;;;;;5077512;28;20130;-71
2020/12/15 02:12:49;;;;;;;33.58;17.17;;;103.30;2227.20;;;;;;5077937;28;20024;-71
2020/12/15 02:15:15;;;;;;;38.63;17.85;;;128.00;2252.80;;;;;;5078048;28;20033;-70
2020/12/15 02:17:41;;;;;;;34.53;17.05;;;128.10;2252.80;;;;;;5077692;28;20017;-72
2020/12/15 02:20:08;;;;;;;36.33;16.85;;;128.30;2252.80;;;;;;5077893;28;20327;-71
2020/12/15 02:22:34;;;;;;;32.33;17.00;;;128.30;2252.80;;;;;;5077901;28;20024;-70
2020/12/15 02:25:03;;;;;;;37.35;19.23;;;128.30;2252.80;;;;;;5077274;28;20028;-72
2020/12/15 02:27:29;;;;;;;35.67;16.75;;;128.40;2252.80;;;;;;5077419;28;20497;-71
2020/12/15 02:29:54;;;;;;;42.90;19.58;;;128.40;2252.80;;;;;;5077482;28;20075;-71
2020/12/15 02:32:20;;;;;;;38.67;19.85;;;128.20;2252.80;;;;;;5076521;28;20035;-71
2020/12/15 02:34:46;;;;;;;42.97;19.40;;;103.30;2227.20;;;;;;5077731;28;20313;-71
2020/12/15 02:37:13;;;;;;;38.15;18.77;;;103.30;2227.20;;;;;;5077114;28;20024;-70
2020/12/15 02:39:40;;;;;;;39.75;18.38;;;128.00;2252.80;;;;;;5077093;28;20408;-72
2020/12/15 02:42:06;;;;;;;36.58;18.52;;;103.20;2227.20;;;;;;5077066;28;20510;-70
2020/12/15 02:44:32;;;;;;;37.10;17.08;;;103.20;2227.20;;;;;;5077020;28;20103;-70
2020/12/15 02:46:58;;;;;;;36.85;17.52;;;103.10;2227.20;;;;;;5077216;28;20119;-71
2020/12/15 02:49:24;;;;;;;42.10;19.75;;;103.10;2227.20;;;;;;5077503;28;20107;-70
2020/12/15 02:51:50;;;;;;;39.20;18.77;;;103.00;2227.20;;;;;;5076840;28;20028;-70
2020/12/15 02:54:17;;;;;;;38.42;18.35;;;103.00;2227.20;;;;;;5077432;28;20494;-71
2020/12/15 02:56:43;;;;;;;38.20;18.40;;;103.00;2227.20;;;;;;5077125;28;20021;-71
2020/12/15 02:59:09;;;;;;;38.25;17.42;;;102.90;2227.20;;;;;;5076724;28;20035;-72
2020/12/15 03:01:46;;;;;;;39.25;17.42;;;102.90;2227.20;;;;;;5076507;28;20343;-71
2020/12/15 03:04:12;;;;;;;40.30;18.30;;;102.80;2227.20;;;;;;5077425;28;20032;-71
2020/12/15 03:06:37;;;;;;;40.05;18.35;;;102.70;2227.20;;;;;;5077088;28;20323;-71
2020/12/15 03:09:09;;;;;;;38.45;17.73;;;102.90;2227.20;;;;;;5077026;28;20028;-70
2020/12/15 03:11:35;;;;;;;32.63;15.90;;;103.10;2227.20;;;;;;5076537;28;20498;-71
2020/12/15 03:14:02;;;;;;;37.33;16.40;;;103.00;2227.20;;;;;;5076490;28;20088;-70
2020/12/15 03:16:28;;;;;;;36.95;17.48;;;102.90;2227.20;;;;;;5076748;28;20016;-70
2020/12/15 03:18:54;;;;;;;37.78;16.15;;;102.90;2227.20;;;;;;5076738;28;20032;-71
2020/12/15 03:21:21;;;;;;;34.85;16.15;;;103.10;2227.20;;;;;;5076302;28;20320;-71
2020/12/15 03:23:47;;;;;;;29.77;15.38;;;103.20;2227.20;;;;;;5077213;28;20025;-71
2020/12/15 03:26:13;;;;;;;31.48;15.70;;;103.20;2227.20;;;;;;5076574;28;20028;-70
2020/12/15 03:28:39;;;;;;;34.55;15.88;;;103.20;2227.20;;;;;;5076907;28;20335;-71
2020/12/15 03:31:05;;;;;;;32.60;15.85;;;103.30;2227.20;;;;;;5076769;28;20024;-70
2020/12/15 03:33:31;;;;;;;34.83;15.73;;;103.20;2227.20;;;;;;5076729;28;20079;-71
2020/12/15 03:35:56;;;;;;;31.02;15.75;;;103.20;2227.20;;;;;;5077057;28;20373;-70
2020/12/15 03:38:22;;;;;;;34.15;15.90;;;103.10;2227.20;;;;;;5076471;28;20115;-71
2020/12/15 03:40:48;;;;;;;29.75;14.25;;;103.20;2227.20;;;;;;5076445;28;20332;-72
2020/12/15 03:43:14;;;;;;;30.88;16.40;;;103.10;2227.20;;;;;;5076700;28;20424;-71
2020/12/15 03:45:43;;;;;;;31.40;15.35;;;102.80;2227.20;;;;;;5076653;28;20050;-71
2020/12/15 03:48:10;;;;;;;28.88;14.52;;;102.80;2227.20;;;;;;5076686;28;20029;-70
2020/12/15 03:50:36;;;;;;;26.83;13.60;;;103.00;2227.20;;;;;;5076316;28;20335;-72
2020/12/15 03:53:03;;;;;;;33.70;16.10;;;103.00;2227.20;;;;;;5076565;28;20033;-70
2020/12/15 03:55:31;;;;;;;41.72;19.05;;;102.90;2227.20;;;;;;5075762;28;20025;-72
2020/12/15 03:57:57;;;;;;;31.63;16.17;;;103.10;2227.20;;;;;;5076621;28;20027;-69
2020/12/15 04:00:23;;;;;;;33.97;16.08;;;103.30;2227.20;;;;;;5076472;28;20107;-71
2020/12/15 04:02:49;;;;;;;34.80;16.17;;;128.10;2252.80;;;;;;5076173;28;20447;-71
2020/12/15 04:05:15;;;;;;;30.85;14.75;;;128.10;2252.80;;;;;;5076200;28;20025;-71
2020/12/15 04:07:41;;;;;;;38.72;17.13;;;128.20;2252.80;;;;;;5076754;28;20024;-70
2020/12/15 04:10:07;;;;;;;34.70;16.63;;;128.30;2252.80;;;;;;5076185;28;20029;-70
2020/12/15 04:12:34;;;;;;;32.78;15.38;;;128.20;2252.80;;;;;;5079677;28;20038;-71
2020/12/15 04:14:59;;;;;;;36.42;17.65;;;128.30;2252.80;;;;;;5080049;28;20033;-71
2020/12/15 04:17:25;;;;;;;39.30;18.52;;;128.00;2252.80;;;;;;5079169;28;20205;-71
2020/12/15 04:19:51;;;;;;;39.58;18.90;;;103.20;2227.20;;;;;;5079430;28;20025;-70
2020/12/15 04:22:17;;;;;;;38.42;18.17;;;103.20;2227.20;;;;;;5079878;28;20020;-70
2020/12/15 04:24:43;;;;;;;33.15;16.90;;;103.10;2227.20;;;;;;5079895;28;20107;-71
2020/12/15 04:27:08;;;;;;;38.35;18.20;;;103.30;2227.20;;;;;;5079804;28;20438;-70
2020/12/15 04:29:34;;;;;;;36.20;17.30;;;103.30;2227.20;;;;;;5079795;28;20130;-71
2020/12/15 04:32:00;;;;;;;35.22;17.48;;;103.20;2227.20;;;;;;5079615;28;20028;-72
2020/12/15 04:34:26;;;;;;;35.95;18.42;;;103.10;2227.20;;;;;;5079711;28;20419;-71
2020/12/15 04:36:51;;;;;;;29.95;14.88;;;103.10;2227.20;;;;;;5079083;28;20032;-70
2020/12/15 04:39:17;;;;;;;33.15;15.73;;;128.00;2252.80;;;;;;5079287;28;20111;-71
2020/12/15 04:41:43;;;;;;;33.83;15.18;;;128.00;2252.80;;;;;;5079438;28;20032;-72
2020/12/15 04:44:09;;;;;;;32.83;16.27;;;128.10;2252.80;;;;;;5079549;28;20031;-71
2020/12/15 04:46:55;;;;;;;35.92;17.27;;;128.20;2252.80;;;;;;5079720;28;20317;-70
2020/12/15 04:49:26;;;;;;;41.40;20.02;;;128.30;2252.80;;;;;;5079708;28;20323;-71
2020/12/15 04:52:02;;;;;;;36.22;17.60;;;128.30;2252.80;;;;;;5078592;28;20028;-72
2020/12/15 04:54:31;;;;;;;33.55;17.48;;;128.30;2252.80;;;;;;5079955;28;20119;-70
2020/12/15 04:57:04;;;;;;;36.55;18.60;;;128.10;2252.80;;;;;;5079250;28;20415;-71
2020/12/15 04:59:36;;;;;;;42.45;20.73;;;128.10;2252.80;;;;;;5079281;28;20166;-70
2020/12/15 05:02:03;;;;;;;37.30;20.88;;;128.20;2252.80;;;;;;5079306;28;20405;-70
2020/12/15 05:04:36;;;;;;;35.78;20.10;;;128.10;2252.80;;;;;;5078626;28;20324;-70
2020/12/15 05:07:04;;;;;;;33.20;16.23;;;128.30;2252.80;;;;;;5079219;28;20153;-71
2020/12/15 05:09:32;;;;;;;29.75;14.95;;;128.20;2252.80;;;;;;5079383;28;20481;-71
2020/12/15 05:11:58;;;;;;;33.05;17.58;;;128.00;2252.80;;;;;;5078622;28;20039;-70
2020/12/15 05:14:25;;;;;;;36.42;19.48;;;103.30;2227.20;;;;;;5079023;28;20418;-70
2020/12/15 05:16:52;;;;;;;37.08;18.63;;;103.30;2227.20;;;;;;5078634;28;20450;-70
2020/12/15 05:19:18;;;;;;;33.75;16.67;;;103.30;2227.20;;;;;;5078291;28;20024;-71
2020/12/15 05:21:59;;;;;;;30.55;16.52;;;103.30;2227.20;;;;;;5078774;28;20385;-69
2020/12/15 05:24:27;;;;;;;34.20;16.13;;;128.20;2252.80;;;;;;5078758;28;20032;-70
2020/12/15 05:26:57;;;;;;;38.83;17.02;;;103.30;2227.20;;;;;;5078467;28;20060;-71
2020/12/15 05:29:24;;;;;;;38.25;18.27;;;128.00;2252.80;;;;;;5078310;28;20359;-70
2020/12/15 05:31:50;;;;;;;32.40;16.48;;;128.00;2252.80;;;;;;5078191;28;20169;-71
2020/12/15 05:34:24;;;;;;;28.88;15.90;;;103.20;2227.20;;;;;;5078580;28;20034;-71
2020/12/15 05:36:55;;;;;;;32.33;16.85;;;103.30;2227.20;;;;;;5078394;28;20383;-72
2020/12/15 05:39:22;;;;;;;35.45;16.25;;;103.20;2227.20;;;;;;5078161;28;20347;-70
2020/12/15 05:41:59;;;;;;;34.03;18.00;;;103.10;2227.20;;;;;;5077867;28;20343;-72
2020/12/15 05:44:28;;;;;;;39.35;20.30;;;103.10;2227.20;;;;;;5078130;28;20020;-70
2020/12/15 05:47:00;;;;;;;35.70;17.77;;;103.10;2227.20;;;;;;5078312;28;20071;-70
2020/12/15 05:49:28;;;;;;;36.17;17.98;;;103.00;2227.20;;;;;;5078599;28;20028;-69
2020/12/15 05:51:54;;;;;;;28.20;15.90;;;103.10;2227.20;;;;;;5078315;28;20060;-70
2020/12/15 05:54:20;;;;;;;32.40;17.23;;;103.20;2227.20;;;;;;5078165;28;20039;-71
2020/12/15 05:56:46;;;;;;;32.22;15.95;;;103.20;2227.20;;;;;;5078340;28;20392;-71
2020/12/15 05:59:21;;;;;;;30.73;15.98;;;103.20;2227.20;;;;;;5078101;28;20051;-71
2020/12/15 06:01:49;;;;;;;30.08;16.42;;;103.10;2227.20;;;;;;5077476;28;20039;-71
2020/12/15 06:04:15;;;;;;;29.23;15.60;;;103.30;2227.20;;;;;;5077808;28;20025;-70
2020/12/15 06:06:42;;;;;;;30.25;13.85;;;103.30;2227.20;;;;;;5078368;28;20025;-70
2020/12/15 06:09:10;;;;;;;29.00;15.00;;;128.10;2252.80;;;;;;5077886;28;20024;-70
2020/12/15 06:11:42;;;;;;;35.17;16.42;;;128.30;2252.80;;;;;;5077364;28;20024;-72
2020/12/15 06:14:09;;;;;;;34.03;18.92;;;128.10;2252.80;;;;;;5077737;28;20029;-72
2020/12/15 06:16:35;;;;;;;31.52;17.55;;;128.00;2252.80;;;;;;5077169;28;20028;-71
2020/12/15 06:19:04;;;;;;;32.97;16.88;;;103.20;2227.20;;;;;;5077731;28;20112;-71
2020/12/15 06:21:30;;;;;;;31.15;16.45;;;103.30;2227.20;;;;;;5077402;28;20024;-69
2020/12/15 06:24:01;;;;;;;33.70;15.15;;;128.10;2252.80;;;;;;5077541;28;20032;-71
2020/12/15 06:26:28;;;;;;;43.00;23.08;;;128.00;2252.80;;;;;;5077731;28;20423;-71
2020/12/15 06:29:01;;;;;;;53.10;32.20;;;128.00;2252.80;;;;;;5076931;28;20477;-72
2020/12/15 06:31:28;;;;;;;49.88;28.38;;;128.10;2252.80;;;;;;5077672;28;20020;-71
2020/12/15 06:33:58;;;;;;;60.00;35.45;;;128.40;2252.80;;;;;;5076199;28;20039;-70
2020/12/15 06:36:30;;;;;;;53.90;31.85;;;128.40;2252.80;;;;;;5076937;28;20024;-70
2020/12/15 06:38:57;;;;;;;33.85;18.30;;;128.30;2252.80;;;;;;5076872;28;20425;-70
2020/12/15 06:41:24;;;;;;;53.47;29.35;;;128.40;2252.80;;;;;;5077424;28;20056;-71
2020/12/15 06:43:50;;;;;;;38.15;19.15;;;128.60;2252.80;;;;;;5076856;28;20021;-70
2020/12/15 06:46:27;;;;;;;37.33;18.88;;;128.60;2252.80;;;;;;5077577;28;20042;-70
2020/12/15 06:48:54;;;;;;;47.10;22.08;;;128.50;2252.80;;;;;;5077295;28;20043;-71
2020/12/15 06:51:54;;;;;;;40.72;21.13;;;128.30;2252.80;;;;;;5076612;28;20339;-70
2020/12/15 06:54:26;;;;;;;63.88;34.05;;;128.20;2252.80;;;;;;5077553;28;20089;-70
2020/12/15 06:57:03;;;;;;;52.97;25.27;;;128.30;2252.80;;;;;;5072819;28;20017;-70
2020/12/15 06:59:35;;;;;;;43.70;20.10;;;128.60;2252.80;;;;;;5075901;28;20032;-71
2020/12/15 07:02:10;;;;;;;58.65;31.20;;;128.40;2252.80;;;;;;5076270;28;20047;-72
2020/12/15 07:04:49;;;;;;;42.03;20.92;;;128.30;2252.80;;;;;;5076735;28;20094;-73
2020/12/15 07:07:16;;;;;;;45.25;21.73;;;128.20;2252.80;;;;;;5077107;28;20438;-71
2020/12/15 07:09:43;;;;;;;44.22;20.85;;;128.30;2252.80;;;;;;5076947;28;20052;-72
2020/12/15 07:12:16;;;;;;;46.22;23.38;;;128.30;2252.80;;;;;;5076514;28;20036;-72
2020/12/15 07:14:50;;;;;;;52.28;23.27;;;128.60;2252.80;;;;;;5077032;28;20020;-72
2020/12/15 07:17:17;;;;;;;41.55;23.05;;;128.90;2252.80;;;;;;5077133;28;20078;-73
2020/12/15 07:19:43;;;;;;;40.97;19.67;;;128.80;2252.80;;;;;;5076840;28;20032;-72
2020/12/15 07:22:09;;;;;;;43.75;23.33;;;128.50;2252.80;;;;;;5076434;28;20024;-74
2020/12/15 07:24:35;;;;;;;40.53;20.77;;;128.50;2252.80;;;;;;5076521;28;20471;-73
2020/12/15 07:27:05;;;;;;;43.65;20.52;;;128.60;2252.80;;;;;;5073189;28;20025;-72
2020/12/15 07:29:31;;;;;;;48.45;22.17;;;128.70;2252.80;;;;;;5069805;28;20024;-72
2020/12/15 07:31:57;;;;;;;45.80;22.13;;;128.90;2252.80;;;;;;5056564;28;20139;-73
2020/12/15 07:34:23;;;;;;;48.40;22.27;;;128.70;2252.80;;;;;;5056497;28;20040;-72
2020/12/15 07:36:51;;;;;;;41.80;20.40;;;128.80;2252.80;;;;;;5056416;28;20408;-72
2020/12/15 07:39:17;;;;;;;53.70;24.50;;;128.90;2252.80;;;;;;5055948;28;20021;-73
2020/12/15 07:41:54;;;;;;;56.50;26.45;;;128.90;2252.80;;;;;;5063854;28;20017;-72
2020/12/15 07:44:19;;;;;;;55.63;26.42;;;128.90;2252.80;;;;;;5076814;28;20025;-73
2020/12/15 07:46:47;;;;;;;51.42;22.67;;;128.90;2252.80;;;;;;5079139;28;20356;-74
2020/12/15 07:49:16;;;;;;;41.47;19.15;;;153.60;2252.80;;;;;;5079893;28;20441;-74
2020/12/15 07:51:43;;;;;;;43.50;18.85;;;153.60;2252.80;;;;;;5080296;28;20029;-72
2020/12/15 07:54:09;;;;;;;41.03;18.73;;;128.90;2252.80;;;;;;5080354;28;20017;-73
2020/12/15 07:56:35;;;;;;;42.30;18.95;;;128.80;2252.80;;;;;;5080237;28;20028;-73
2020/12/15 07:59:01;;;;;;;41.03;18.90;;;128.90;2252.80;;;;;;5080035;28;20020;-74
2020/12/15 08:01:31;;;;;;;53.17;30.58;;;153.60;2252.80;;;;;;5079877;28;20030;-72
2020/12/15 08:04:11;;;;;;;76.85;42.00;;;153.60;2252.80;;;;;;5078598;28;20067;-73
2020/12/15 08:06:43;;;;;;;38.67;16.95;;;153.80;2252.80;;;;;;5060020;28;20021;-73
2020/12/15 08:09:10;;;;;;;42.20;18.40;;;128.90;2252.80;;;;;;5059869;28;20021;-71
2020/12/15 08:11:37;;;;;;;47.35;20.73;;;128.80;2252.80;;;;;;5059539;28;20439;-73
2020/12/15 08:14:04;;;;;;;41.03;19.25;;;128.90;2252.80;;;;;;5059150;28;20028;-72
2020/12/15 08:16:31;;;;;;;36.80;18.70;;;128.80;2252.80;;;;;;5058431;28;20405;-74
2020/12/15 08:19:02;;;;;;;40.72;18.83;;;128.60;2252.80;;;;;;5058697;28;20428;-72
2020/12/15 08:21:38;;;;;;;63.67;34.20;;;128.30;2252.80;;;;;;5059299;28;20075;-74
2020/12/15 08:24:09;;;;;;;57.88;34.42;;;128.40;2252.80;;;;;;5059580;28;20058;-72
2020/12/15 08:26:35;;;;;;;46.08;21.63;;;128.70;2252.80;;;;;;5059718;28;20025;-72
2020/12/15 08:29:10;;;;;;;45.00;22.40;;;128.90;2252.80;;;;;;5058735;28;20048;-73
2020/12/15 08:31:41;;;;;;;48.92;26.65;;;153.80;2252.80;;;;;;5059687;28;20369;-72
2020/12/15 08:34:33;;;;;;;40.58;22.55;;;154.00;2252.80;;;;;;5059628;28;20438;-72
2020/12/15 08:36:59;;;;;;;42.75;19.27;;;154.10;2227.20;;;;;;4997339;28;20038;-72
2020/12/15 08:39:32;;;;;;;39.88;20.02;;;154.30;2201.60;;;;;;4997995;28;20064;-71
2020/12/15 08:41:58;;;;;;;51.00;26.95;;;154.10;2252.80;;;;;;4997750;28;20092;-72
2020/12/15 08:44:25;;;;;;;31.85;16.63;;;154.30;2201.60;;;;;;4998058;28;20062;-72
2020/12/15 08:46:55;;;;;;;33.75;18.00;;;154.30;2201.60;;;;;;4997310;28;20036;-72
2020/12/15 08:49:26;;;;;;;27.70;13.90;;;179.20;2150.40;;;;;;4997447;28;20437;-74
2020/12/15 08:51:53;;;;;;;24.88;13.07;;;179.30;2124.80;;;;;;4997592;28;20037;-72
2020/12/15 08:54:21;;;;;;;33.03;18.10;;;154.30;2176.00;;;;;;4997423;28;20035;-73
2020/12/15 08:56:48;;;;;;;27.35;14.48;;;154.50;2150.40;;;;;;4995980;28;20396;-73
2020/12/15 08:59:18;;;;;;;27.35;13.82;;;154.50;2176.00;;;;;;4997459;28;20112;-74
2020/12/15 09:01:45;;;;;;;19.98;11.20;;;154.40;2176.00;;;;;;4997137;28;20042;-73
2020/12/15 09:04:12;;;;;;;18.70;10.82;;;154.10;2176.00;;;;;;4996859;28;20532;-74
2020/12/15 09:06:39;;;;;;;22.33;11.27;;;154.10;2150.40;;;;;;4996476;28;20452;-73
2020/12/15 09:09:06;;;;;;;21.27;12.48;;;154.20;2150.40;;;;;;4997182;28;20153;-73
2020/12/15 09:11:33;;;;;;;29.52;14.13;;;154.30;2150.40;;;;;;4996972;28;20117;-74
2020/12/15 09:14:06;;;;;;;22.77;11.45;;;154.30;2124.80;;;;;;5033807;28;20048;-73
2020/12/15 09:16:36;;;;;;;43.60;27.85;;;154.40;2124.80;;;;;;5058845;28;20047;-74
2020/12/15 09:19:17;;;;;;;27.08;16.45;;;154.30;2124.80;;;;;;5058941;28;20032;-72
2020/12/15 09:22:12;;;;;;;31.13;17.30;;;153.80;2150.40;;;;;;5058603;28;20029;-73
2020/12/15 09:24:44;;;;;;;44.55;26.95;;;153.70;2201.60;;;;;;5057864;28;20021;-75
2020/12/15 09:27:20;;;;;;;31.23;17.25;;;154.20;2150.40;;;;;;5058517;28;20340;-73
2020/12/15 09:29:47;;;;;;;28.98;17.02;;;153.90;2150.40;;;;;;5058630;28;20021;-73
2020/12/15 09:32:13;;;;;;;46.00;31.88;;;154.00;2201.60;;;;;;5058397;28;20032;-74
2020/12/15 09:34:39;;;;;;;41.00;26.25;;;154.20;2150.40;;;;;;5058367;28;20035;-75
2020/12/15 09:37:05;;;;;;;29.75;14.77;;;154.30;2150.40;;;;;;5058429;28;20029;-73
2020/12/15 09:39:32;;;;;;;22.08;10.95;;;154.20;2150.40;;;;;;5058336;28;20025;-72
2020/12/15 09:42:02;;;;;;;27.67;14.02;;;154.10;2150.40;;;;;;5058029;28;20028;-72
2020/12/15 09:44:29;;;;;;;32.67;17.38;;;154.20;2150.40;;;;;;5058226;28;20025;-72
2020/12/15 09:46:55;;;;;;;26.42;13.90;;;154.40;2124.80;;;;;;5057998;28;20033;-72
2020/12/15 09:49:21;;;;;;;29.75;14.52;;;154.10;2176.00;;;;;;5057797;28;20029;-73
2020/12/15 09:51:47;;;;;;;25.85;13.80;;;153.90;2201.60;;;;;;5057237;28;20036;-72
2020/12/15 09:54:13;;;;;;;28.20;13.98;;;154.00;2201.60;;;;;;5057897;28;20031;-72
2020/12/15 09:56:43;;;;;;;37.97;19.38;;;154.30;2176.00;;;;;;5057949;28;20115;-73
2020/12/15 09:59:10;;;;;;;33.78;16.45;;;154.20;2150.40;;;;;;5057652;28;20036;-72
2020/12/15 10:01:39;;;;;;;31.83;16.83;;;154.20;2176.00;;;;;;5057625;28;20363;-71
2020/12/15 10:04:05;;;;;;;33.78;17.48;;;153.80;2201.60;;;;;;5057511;28;20408;-71
2020/12/15 10:06:31;;;;;;;32.33;15.98;;;153.60;2252.80;;;;;;5057196;28;20074;-72
2020/12/15 10:08:57;;;;;;;29.38;15.57;;;153.70;2227.20;;;;;;5067815;28;20036;-72
2020/12/15 10:11:25;;;;;;;39.83;21.45;;;153.90;2201.60;;;;;;5077368;28;20107;-71
2020/12/15 10:13:51;;;;;;;37.55;16.05;;;153.70;2201.60;;;;;;5077217;28;20076;-71
2020/12/15 10:16:17;;;;;;;39.28;18.27;;;128.70;2252.80;;;;;;5077571;28;20025;-71
2020/12/15 10:18:43;;;;;;;35.28;17.42;;;128.60;2252.80;;;;;;5077292;28;20086;-71
2020/12/15 10:21:09;;;;;;;40.30;21.33;;;128.60;2252.80;;;;;;5076667;28;20521;-71
2020/12/15 10:23:37;;;;;;;40.30;20.08;;;128.50;2252.80;;;;;;5077477;28;20028;-71
2020/12/15 10:26:04;;;;;;;46.28;19.58;;;128.60;2252.80;;;;;;5077410;28;20032;-70
2020/12/15 10:28:31;;;;;;;46.22;24.27;;;128.60;2252.80;;;;;;5076822;28;20024;-71
2020/12/15 10:30:56;;;;;;;42.88;20.15;;;128.90;2252.80;;;;;;5077226;28;20033;-72
2020/12/15 10:33:22;;;;;;;38.97;20.70;;;153.60;2252.80;;;;;;5077292;28;20039;-72
2020/12/15 10:35:48;;;;;;;40.80;21.92;;;128.30;2252.80;;;;;;5077563;28;20029;-72
2020/12/15 10:38:14;;;;;;;38.67;21.25;;;128.50;2252.80;;;;;;5077594;28;20028;-71
2020/12/15 10:40:40;;;;;;;43.28;22.55;;;128.50;2252.80;;;;;;5076761;28;20383;-72
2020/12/15 10:43:06;;;;;;;30.45;17.15;;;128.70;2252.80;;;;;;5077085;28;20028;-75
2020/12/15 10:45:32;;;;;;;45.58;20.38;;;153.70;2252.80;;;;;;5077428;28;20052;-72
2020/12/15 10:47:58;;;;;;;32.10;17.92;;;153.90;2201.60;;;;;;5076565;28;20411;-72
2020/12/15 10:50:24;;;;;;;37.17;20.92;;;153.90;2201.60;;;;;;5077397;28;20078;-74
2020/12/15 10:52:50;;;;;;;28.00;15.02;;;154.20;2201.60;;;;;;5076669;28;20033;-72
2020/12/15 10:55:15;;;;;;;30.50;15.52;;;154.00;2176.00;;;;;;5076510;28;20024;-72
2020/12/15 10:57:41;;;;;;;29.00;15.25;;;154.10;2201.60;;;;;;5076719;28;20032;-73
2020/12/15 11:00:07;;;;;;;32.28;14.75;;;153.90;2227.20;;;;;;5076106;28;20024;-73
2020/12/15 11:02:33;;;;;;;30.38;17.50;;;153.80;2227.20;;;;;;5076414;28;20428;-72
2020/12/15 11:04:59;;;;;;;30.98;15.25;;;154.10;2201.60;;;;;;5076745;28;20028;-73
2020/12/15 11:07:25;;;;;;;34.33;18.50;;;153.80;2227.20;;;;;;5076882;28;20107;-73
2020/12/15 11:09:51;;;;;;;30.80;17.30;;;153.60;2227.20;;;;;;5076599;28;20411;-71
2020/12/15 11:12:17;;;;;;;31.35;15.95;;;153.60;2252.80;;;;;;5076794;28;20055;-72
2020/12/15 11:14:43;;;;;;;31.48;16.80;;;128.40;2252.80;;;;;;5074645;28;20094;-72
2020/12/15 11:17:09;;;;;;;32.90;16.25;;;128.20;2252.80;;;;;;5076103;28;20036;-71
2020/12/15 11:19:35;;;;;;;33.28;15.80;;;128.80;2252.80;;;;;;5076051;28;20040;-72
2020/12/15 11:22:02;;;;;;;27.58;15.90;;;153.70;2252.80;;;;;;5080635;28;20320;-71
2020/12/15 11:24:27;;;;;;;33.30;14.60;;;154.00;2227.20;;;;;;5079578;28;20024;-72
2020/12/15 11:26:53;;;;;;;35.97;19.60;;;153.60;2252.80;;;;;;5079107;28;20048;-70
2020/12/15 11:29:19;;;;;;;31.92;17.55;;;154.00;2227.20;;;;;;5080244;28;20034;-71
2020/12/15 11:31:52;;;;;;;37.22;19.65;;;154.20;2201.60;;;;;;5080270;28;20025;-71
2020/12/15 11:34:19;;;;;;;32.72;21.00;;;153.90;2252.80;;;;;;5080878;28;20111;-73
2020/12/15 11:36:45;;;;;;;25.83;12.70;;;154.10;2227.20;;;;;;5080091;28;20028;-73
2020/12/15 11:39:10;;;;;;;19.90;11.18;;;154.00;2227.20;;;;;;5080479;28;20429;-73
2020/12/15 11:41:38;;;;;;;24.90;12.88;;;154.10;2227.20;;;;;;5080816;28;20070;-72
2020/12/15 11:44:04;;;;;;;22.25;10.88;;;154.40;2176.00;;;;;;5080325;28;20032;-71
2020/12/15 11:46:30;;;;;;;26.05;14.60;;;154.20;2201.60;;;;;;5080821;28;20024;-71
2020/12/15 11:48:56;;;;;;;24.42;14.07;;;154.40;2150.40;;;;;;5080307;28;20074;-73
2020/12/15 11:51:21;;;;;;;37.67;22.80;;;154.30;2176.00;;;;;;5080149;28;20029;-72
2020/12/15 11:53:47;;;;;;;57.60;32.42;;;154.40;2176.00;;;;;;5080261;28;20032;-72
2020/12/15 11:56:19;;;;;;;32.22;18.15;;;179.30;2124.80;;;;;;5080282;28;20396;-71
2020/12/15 11:58:46;;;;;;;23.13;14.20;;;179.50;2124.80;;;;;;5079571;28;20024;-72
2020/12/15 12:01:12;;;;;;;19.98;11.40;;;179.60;2099.20;;;;;;5080164;28;20032;-71